Kanawha, Iowa
Current Conditions -  °F | °C
As of 7:55 PM on Monday 24 Nov 2014 (Local Time) from KCAV Reporting Station
Light Snow Light Snow  
Wind Chill:   Ceiling: 2500
Heat Index: 19°   Visibility: 2mi
Dew Point: 16°   Wind: 31mph
Humidity: 86%   Direction: 320°NW
Pressure: 29.84"   Gusts: 37mph
Location:  42.94°N, 93.79°W
Report Text: KCAV 250155Z AUTO 32027G32KT 2SM -SN FEW004 BKN025 OVC075 M07/M09 A2984 RMK AO2
Loading
Personal Weather Stations






























Interactive Weather Map New forecast layout! Learn more

10-Day Weather Forecast

Advertisements
Track Severe Weather on mobile